createdAt,value
2023-02-19T00:00:50.173Z,6.18
2023-02-19T00:03:20.018Z,5.98
2023-02-19T00:05:49.923Z,5.90
2023-02-19T00:08:19.878Z,5.39
2023-02-19T00:10:49.713Z,5.58
2023-02-19T00:13:22.466Z,4.93
2023-02-19T00:15:52.340Z,5.48
2023-02-19T00:18:22.251Z,5.26
2023-02-19T00:20:52.378Z,5.27
2023-02-19T00:23:22.392Z,5.42
2023-02-19T00:25:52.320Z,5.04
2023-02-19T00:28:25.638Z,4.82
2023-02-19T00:30:55.554Z,4.90
2023-02-19T00:33:25.405Z,4.62
2023-02-19T00:35:55.285Z,4.66
2023-02-19T00:38:25.139Z,4.51
2023-02-19T00:40:55.140Z,4.58
2023-02-19T00:43:28.680Z,4.48
2023-02-19T00:45:58.583Z,4.41
2023-02-19T00:48:28.478Z,4.25
2023-02-19T00:50:58.352Z,4.35
2023-02-19T00:53:28.222Z,4.49
2023-02-19T00:55:58.079Z,4.16
2023-02-19T00:58:30.563Z,4.42
2023-02-19T01:01:00.768Z,4.53
2023-02-19T01:03:31.777Z,4.32
2023-02-19T01:06:01.696Z,4.15
2023-02-19T01:08:33.000Z,4.23
2023-02-19T01:11:05.267Z,4.04
2023-02-19T01:13:38.278Z,4.05
2023-02-19T01:16:09.160Z,4.40
2023-02-19T01:18:39.649Z,4.28
2023-02-19T01:21:11.518Z,4.34
2023-02-19T01:23:42.732Z,4.36
2023-02-19T01:26:17.045Z,5.51
2023-02-19T01:28:49.768Z,5.03
2023-02-19T01:31:21.957Z,4.47
2023-02-19T01:33:54.814Z,4.69
2023-02-19T01:36:25.150Z,4.38
2023-02-19T01:38:55.210Z,4.22
2023-02-19T01:41:27.757Z,4.09
2023-02-19T01:44:04.467Z,3.78
2023-02-19T01:46:35.360Z,3.77
2023-02-19T01:49:10.210Z,3.24
2023-02-19T01:51:44.881Z,2.99
2023-02-19T01:54:19.280Z,2.79
2023-02-19T01:56:52.733Z,2.64
2023-02-19T01:59:25.668Z,2.65
2023-02-19T02:01:55.647Z,2.50
2023-02-19T02:04:25.730Z,2.48
2023-02-19T02:06:57.788Z,2.69
2023-02-19T02:09:43.837Z,2.43
2023-02-19T02:12:14.230Z,2.78
2023-02-19T02:14:50.415Z,2.97
2023-02-19T02:17:29.417Z,3.34
2023-02-19T02:20:44.595Z,3.09
2023-02-19T02:23:26.806Z,3.06
2023-02-19T02:26:09.965Z,3.07
2023-02-19T02:29:15.340Z,2.45
2023-02-19T02:31:56.954Z,2.17
2023-02-19T02:34:33.486Z,1.91
2023-02-19T02:37:04.079Z,2.10
2023-02-19T02:39:35.473Z,1.68
2023-02-19T02:42:17.929Z,1.80
2023-02-19T02:45:09.228Z,1.73
2023-02-19T02:47:53.058Z,1.73
2023-02-19T02:50:28.727Z,1.66
2023-02-19T02:53:17.339Z,1.78
2023-02-19T02:55:51.950Z,1.80
2023-02-19T02:58:27.402Z,1.73
2023-02-19T03:01:17.949Z,1.82
2023-02-19T03:03:57.473Z,1.74
2023-02-19T03:06:33.095Z,1.92
2023-02-19T03:09:11.987Z,1.81
2023-02-19T03:12:00.701Z,1.83
2023-02-19T03:14:51.033Z,1.65
2023-02-19T03:17:40.249Z,1.56
2023-02-19T03:20:18.746Z,1.61
2023-02-19T03:22:51.234Z,1.65
2023-02-19T03:25:36.980Z,1.73
2023-02-19T03:28:11.502Z,1.61
2023-02-19T03:30:47.616Z,1.62
2023-02-19T03:33:21.477Z,1.49
2023-02-19T03:35:59.892Z,1.50
2023-02-19T03:38:42.285Z,1.55
2023-02-19T03:41:21.629Z,1.43
2023-02-19T03:44:02.890Z,1.34
2023-02-19T03:46:42.754Z,1.46
2023-02-19T03:49:23.874Z,1.16
2023-02-19T03:52:05.236Z,1.29
2023-02-19T03:54:41.462Z,1.29
2023-02-19T03:57:21.653Z,1.13
2023-02-19T03:59:58.673Z,1.06
2023-02-19T04:02:37.853Z,1.20
2023-02-19T04:05:14.297Z,1.29
2023-02-19T04:07:52.817Z,1.37
2023-02-19T04:10:29.157Z,1.20
2023-02-19T04:13:07.308Z,1.41
2023-02-19T04:15:38.356Z,1.40
2023-02-19T04:18:15.419Z,1.41
2023-02-19T04:20:49.075Z,1.37
2023-02-19T04:23:26.737Z,1.34
2023-02-19T04:26:02.598Z,1.44
2023-02-19T04:28:33.124Z,1.53
2023-02-19T04:31:03.857Z,1.41
2023-02-19T04:33:33.859Z,1.52
2023-02-19T04:36:04.103Z,1.70
2023-02-19T04:38:36.596Z,1.67
2023-02-19T04:41:06.681Z,1.32
2023-02-19T04:43:36.543Z,1.35
2023-02-19T04:46:07.081Z,1.34
2023-02-19T04:48:36.989Z,1.42
2023-02-19T04:51:09.579Z,1.39
2023-02-19T04:53:42.814Z,1.32
2023-02-19T04:56:15.452Z,1.43
2023-02-19T04:58:47.005Z,1.59
2023-02-19T05:01:17.163Z,1.31
2023-02-19T05:03:47.445Z,1.23
2023-02-19T05:06:17.653Z,1.23
2023-02-19T05:08:50.087Z,1.12
2023-02-19T05:11:20.150Z,0.94
2023-02-19T05:13:49.987Z,1.01
2023-02-19T05:16:20.462Z,1.05
2023-02-19T05:18:50.486Z,1.11
2023-02-19T05:21:20.374Z,0.91
2023-02-19T05:23:52.771Z,0.95
2023-02-19T05:26:26.824Z,1.10
2023-02-19T05:28:57.384Z,1.17
2023-02-19T05:31:27.356Z,0.99
2023-02-19T05:33:58.038Z,0.95
2023-02-19T05:36:28.377Z,1.02
2023-02-19T05:39:01.188Z,1.05
2023-02-19T05:41:32.963Z,0.99
2023-02-19T05:44:02.913Z,0.94
2023-02-19T05:46:33.572Z,0.87
2023-02-19T05:49:03.445Z,0.89
2023-02-19T05:51:33.318Z,0.87
2023-02-19T05:54:05.966Z,1.03
2023-02-19T05:56:37.833Z,1.08
2023-02-19T05:59:10.191Z,0.93
2023-02-19T06:01:40.035Z,0.96
2023-02-19T06:04:09.963Z,1.12
2023-02-19T06:06:39.999Z,1.13
2023-02-19T06:09:13.390Z,1.13
2023-02-19T06:11:43.731Z,1.02
2023-02-19T06:14:16.243Z,1.02
2023-02-19T06:16:46.092Z,1.11
2023-02-19T06:19:15.970Z,1.12
2023-02-19T06:21:46.684Z,1.24
2023-02-19T06:24:19.201Z,1.22
2023-02-19T06:26:49.279Z,1.31
2023-02-19T06:29:19.944Z,1.32
2023-02-19T06:31:49.856Z,1.21
2023-02-19T06:34:19.767Z,1.10
2023-02-19T06:36:52.079Z,1.16
2023-02-19T06:39:24.506Z,1.00
2023-02-19T06:41:54.423Z,1.17
2023-02-19T06:44:24.264Z,1.12
2023-02-19T06:46:57.430Z,1.20
2023-02-19T06:49:27.273Z,0.96
2023-02-19T06:51:57.121Z,1.02
2023-02-19T06:54:29.612Z,1.14
2023-02-19T06:56:59.887Z,1.18
2023-02-19T06:59:30.203Z,2.03
2023-02-19T07:01:59.997Z,2.78
2023-02-19T07:04:29.917Z,1.12
2023-02-19T07:07:00.322Z,1.86
2023-02-19T07:09:32.947Z,1.58
2023-02-19T07:12:02.806Z,1.24
2023-02-19T07:14:32.867Z,1.27
2023-02-19T07:17:02.762Z,1.41
2023-02-19T07:19:32.583Z,1.66
2023-02-19T07:22:02.408Z,1.78
2023-02-19T07:24:34.830Z,1.85
2023-02-19T07:27:04.764Z,1.99
2023-02-19T07:29:34.611Z,2.21
2023-02-19T07:32:04.773Z,2.00
2023-02-19T07:34:34.664Z,2.09
2023-02-19T07:37:04.515Z,2.97
2023-02-19T07:39:36.990Z,2.31
2023-02-19T07:42:07.078Z,2.29
2023-02-19T07:44:36.965Z,2.18
2023-02-19T07:47:06.970Z,2.28
2023-02-19T07:49:37.107Z,2.29
2023-02-19T07:52:07.379Z,2.23
2023-02-19T07:54:39.835Z,2.44
2023-02-19T07:57:09.681Z,2.61
2023-02-19T07:59:39.543Z,2.74
2023-02-19T08:02:31.583Z,2.80
2023-02-19T08:05:01.461Z,2.81
2023-02-19T08:07:34.369Z,2.93
2023-02-19T08:10:20.171Z,2.95
2023-02-19T08:13:10.894Z,3.17
2023-02-19T08:15:40.714Z,2.89
2023-02-19T08:18:11.338Z,3.26
2023-02-19T08:20:41.535Z,3.83
2023-02-19T08:23:12.360Z,3.20
2023-02-19T08:25:44.928Z,3.25
2023-02-19T08:28:15.717Z,3.19
2023-02-19T08:30:47.564Z,2.85
2023-02-19T08:33:21.451Z,2.96
2023-02-19T08:35:51.373Z,3.02
2023-02-19T08:38:21.201Z,3.02
2023-02-19T08:40:53.704Z,2.97
2023-02-19T08:43:23.580Z,3.11
2023-02-19T08:45:57.104Z,3.29
2023-02-19T08:48:26.958Z,3.15
2023-02-19T08:50:58.255Z,3.15
2023-02-19T08:53:29.400Z,4.11
2023-02-19T08:56:02.508Z,3.78
2023-02-19T08:58:32.916Z,3.48
2023-02-19T09:01:02.938Z,3.83
2023-02-19T09:03:33.025Z,3.35
2023-02-19T09:06:02.880Z,3.44
2023-02-19T09:08:32.742Z,3.52
2023-02-19T09:11:07.742Z,3.77
2023-02-19T09:13:37.570Z,3.46
2023-02-19T09:16:08.378Z,3.34
2023-02-19T09:18:38.553Z,3.40
2023-02-19T09:21:09.732Z,3.34
2023-02-19T09:23:40.280Z,3.52
2023-02-19T09:26:14.121Z,3.77
2023-02-19T09:28:44.234Z,3.68
2023-02-19T09:31:17.081Z,3.86
2023-02-19T09:33:48.095Z,3.81
2023-02-19T09:36:19.627Z,3.63
2023-02-19T09:38:49.542Z,3.45
2023-02-19T09:41:32.651Z,3.48
2023-02-19T09:44:04.991Z,3.63
2023-02-19T09:46:39.931Z,3.76
2023-02-19T09:49:17.642Z,3.38
2023-02-19T09:51:53.084Z,3.47
2023-02-19T09:54:27.625Z,3.54
2023-02-19T09:57:04.682Z,3.55
2023-02-19T09:59:42.771Z,3.68
2023-02-19T10:02:18.825Z,3.71
2023-02-19T10:04:53.615Z,3.42
2023-02-19T10:07:27.702Z,3.57
2023-02-19T10:10:03.450Z,3.76
2023-02-19T10:12:36.028Z,3.73
2023-02-19T10:15:15.046Z,3.80
2023-02-19T10:17:45.055Z,4.33
2023-02-19T10:20:20.107Z,4.45
2023-02-19T10:22:50.108Z,3.58
2023-02-19T10:25:20.306Z,3.59
2023-02-19T10:27:52.883Z,3.75
2023-02-19T10:30:27.657Z,3.96
2023-02-19T10:33:03.763Z,3.70
2023-02-19T10:35:40.604Z,3.72
2023-02-19T10:38:10.929Z,3.91
2023-02-19T10:40:48.917Z,4.15
2023-02-19T10:43:33.051Z,4.69
2023-02-19T10:46:07.546Z,4.02
2023-02-19T10:48:43.624Z,3.99
2023-02-19T10:51:21.852Z,3.63
2023-02-19T10:53:54.148Z,3.54
2023-02-19T10:56:30.073Z,3.93
2023-02-19T10:59:18.858Z,3.63
2023-02-19T11:02:03.698Z,3.69
2023-02-19T11:04:38.167Z,3.45
2023-02-19T11:07:12.367Z,3.49
2023-02-19T11:09:45.654Z,3.57
2023-02-19T11:12:17.538Z,4.74
2023-02-19T11:14:50.071Z,3.60
2023-02-19T11:17:27.331Z,3.63
2023-02-19T11:20:01.101Z,3.62
2023-02-19T11:22:38.673Z,3.57
2023-02-19T11:25:25.895Z,3.49
2023-02-19T11:28:07.422Z,3.07
2023-02-19T11:30:43.162Z,3.57
2023-02-19T11:33:32.588Z,3.35
2023-02-19T11:36:30.450Z,3.36
2023-02-19T11:39:04.920Z,3.16
2023-02-19T11:41:59.722Z,3.42
2023-02-19T11:44:46.356Z,3.57
2023-02-19T11:47:54.315Z,3.33
2023-02-19T11:50:32.217Z,3.46
2023-02-19T11:53:18.723Z,3.35
2023-02-19T11:56:05.413Z,3.33
2023-02-19T11:59:03.030Z,3.51
2023-02-19T12:02:05.127Z,3.50
2023-02-19T12:05:06.451Z,3.80
2023-02-19T12:08:10.527Z,3.43
2023-02-19T12:10:59.952Z,3.71
2023-02-19T12:13:45.134Z,3.84
2023-02-19T12:16:30.504Z,3.65
2023-02-19T12:19:43.332Z,3.62
2023-02-19T12:22:31.968Z,3.49
2023-02-19T12:25:29.310Z,3.64
2023-02-19T12:28:18.549Z,3.70
2023-02-19T12:31:18.351Z,3.71
2023-02-19T12:34:19.728Z,3.26
2023-02-19T12:37:04.039Z,3.99
2023-02-19T12:39:57.519Z,3.78
2023-02-19T12:42:46.314Z,3.82
2023-02-19T12:45:23.978Z,3.90
2023-02-19T12:48:07.599Z,3.91
2023-02-19T12:50:40.217Z,3.80
2023-02-19T12:53:21.922Z,3.39
2023-02-19T12:55:57.143Z,3.80
2023-02-19T12:58:35.159Z,3.57
2023-02-19T13:01:08.531Z,4.14
2023-02-19T13:03:44.572Z,3.65
2023-02-19T13:06:57.590Z,3.52
2023-02-19T13:12:56.368Z,2.85
2023-02-19T13:15:46.429Z,3.14
2023-02-19T13:18:29.405Z,3.05
2023-02-19T13:21:52.614Z,2.72
2023-02-19T13:24:35.924Z,2.88
2023-02-19T13:27:41.681Z,2.87
2023-02-19T13:31:00.756Z,2.65
2023-02-19T13:34:05.429Z,2.69
2023-02-19T13:37:11.353Z,2.80
2023-02-19T13:40:03.289Z,2.79
2023-02-19T13:42:40.305Z,2.73
2023-02-19T13:45:40.539Z,3.08
2023-02-19T13:51:51.130Z,3.03
2023-02-19T13:54:27.971Z,3.73
2023-02-19T13:57:33.592Z,3.47
2023-02-19T14:00:04.054Z,3.51
2023-02-19T14:02:36.971Z,3.58
2023-02-19T14:05:14.358Z,3.39
2023-02-19T14:07:55.534Z,3.65
2023-02-19T14:10:57.769Z,3.53
2023-02-19T14:13:59.279Z,3.54
2023-02-19T14:16:35.107Z,3.69
2023-02-19T14:19:04.976Z,3.77
2023-02-19T14:21:43.459Z,3.55
2023-02-19T14:24:17.233Z,3.65
2023-02-19T14:26:47.651Z,4.02
2023-02-19T14:29:20.272Z,3.83
2023-02-19T14:31:50.355Z,4.06
2023-02-19T14:34:27.055Z,4.10
2023-02-19T14:37:02.710Z,4.35
2023-02-19T14:39:37.826Z,3.90
2023-02-19T14:42:15.349Z,3.35
2023-02-19T14:44:52.959Z,3.36
2023-02-19T14:47:27.287Z,2.88
2023-02-19T14:50:03.981Z,2.84
2023-02-19T14:52:44.445Z,2.76
2023-02-19T14:55:23.713Z,2.50
2023-02-19T14:57:57.896Z,2.61
2023-02-19T15:00:30.808Z,2.47
2023-02-19T15:03:02.698Z,3.48
2023-02-19T15:05:34.953Z,3.23
2023-02-19T15:08:14.228Z,2.80
2023-02-19T15:10:46.289Z,3.18
2023-02-19T15:13:27.739Z,3.32
2023-02-19T15:15:58.675Z,3.10
2023-02-19T15:18:35.728Z,3.62
2023-02-19T15:21:08.378Z,3.55
2023-02-19T15:23:41.863Z,3.66
2023-02-19T15:26:24.259Z,3.70
2023-02-19T15:29:02.187Z,3.55
2023-02-19T15:31:32.252Z,4.64
2023-02-19T15:34:02.254Z,5.38
2023-02-19T15:36:36.868Z,4.32
2023-02-19T15:39:09.441Z,3.72
2023-02-19T15:41:39.632Z,4.43
2023-02-19T15:44:37.276Z,4.53
2023-02-19T15:47:17.240Z,3.92
2023-02-19T15:49:57.224Z,4.01
2023-02-19T15:52:39.120Z,4.09
2023-02-19T15:55:27.794Z,4.02
2023-02-19T15:58:06.152Z,4.33
2023-02-19T16:00:44.399Z,3.93
2023-02-19T16:03:21.687Z,3.98
2023-02-19T16:06:02.516Z,3.83
2023-02-19T16:08:34.500Z,3.67
2023-02-19T16:11:10.726Z,3.71
2023-02-19T16:13:40.828Z,4.44
2023-02-19T16:16:21.510Z,3.82
2023-02-19T16:18:54.507Z,3.64
2023-02-19T16:21:27.407Z,3.60
2023-02-19T16:24:13.835Z,3.45
2023-02-19T16:26:48.467Z,3.64
2023-02-19T16:29:24.304Z,3.99
2023-02-19T16:31:57.745Z,4.07
2023-02-19T16:34:36.472Z,4.00
2023-02-19T16:37:06.659Z,3.94
2023-02-19T16:39:36.724Z,3.87
2023-02-19T16:42:19.362Z,4.24
2023-02-19T16:44:52.152Z,4.81
2023-02-19T16:47:32.820Z,4.22
2023-02-19T16:50:07.597Z,3.78
2023-02-19T16:52:39.313Z,3.99
2023-02-19T16:55:16.146Z,4.37
2023-02-19T16:57:48.857Z,4.69
2023-02-19T17:00:20.878Z,3.99
2023-02-19T17:02:53.855Z,4.45
2023-02-19T17:05:26.473Z,3.90
2023-02-19T17:07:56.604Z,3.64
2023-02-19T17:10:30.676Z,3.60
2023-02-19T17:13:03.296Z,3.43
2023-02-19T17:15:33.435Z,3.53
2023-02-19T17:18:03.468Z,3.60
2023-02-19T17:20:38.325Z,3.62
2023-02-19T17:23:08.430Z,3.89
2023-02-19T17:25:38.401Z,3.90
2023-02-19T17:28:11.156Z,3.80
2023-02-19T17:30:41.252Z,4.38
2023-02-19T17:33:11.336Z,3.75
2023-02-19T17:36:02.761Z,3.72
2023-02-19T17:38:55.204Z,4.00
2023-02-19T17:42:02.065Z,4.11
2023-02-19T17:45:13.223Z,4.28
2023-02-19T17:54:12.202Z,4.56
2023-02-19T17:56:47.809Z,5.03
2023-02-19T17:59:19.298Z,4.58
2023-02-19T18:01:55.234Z,4.65
2023-02-19T18:04:25.312Z,4.38
2023-02-19T18:06:55.967Z,4.90
2023-02-19T18:09:26.106Z,5.45
2023-02-19T18:11:55.980Z,4.84
2023-02-19T18:14:25.892Z,4.21
2023-02-19T18:16:58.349Z,4.56
2023-02-19T18:19:28.561Z,4.39
2023-02-19T18:21:58.475Z,4.78
2023-02-19T18:24:28.361Z,4.51
2023-02-19T18:26:58.427Z,4.48
2023-02-19T18:29:30.128Z,4.28
2023-02-19T18:32:02.680Z,6.94
2023-02-19T18:34:32.671Z,12.37
2023-02-19T18:37:02.562Z,7.82
2023-02-19T18:39:32.469Z,5.67
2023-02-19T18:42:03.000Z,5.51
2023-02-19T18:44:32.855Z,9.10
2023-02-19T18:47:05.441Z,10.93
2023-02-19T18:49:35.315Z,8.98
2023-02-19T18:52:05.334Z,6.23
2023-02-19T18:54:35.675Z,6.40
2023-02-19T18:57:05.620Z,6.49
2023-02-19T18:59:35.519Z,4.75
2023-02-19T19:02:09.437Z,4.87
2023-02-19T19:04:41.463Z,4.53
2023-02-19T19:07:12.418Z,4.24
2023-02-19T19:09:42.331Z,4.51
2023-02-19T19:12:12.207Z,6.67
2023-02-19T19:14:42.289Z,5.71
2023-02-19T19:17:14.838Z,4.45
2023-02-19T19:19:46.161Z,4.26
2023-02-19T19:22:16.680Z,4.19
2023-02-19T19:24:46.640Z,4.20
2023-02-19T19:27:16.558Z,4.06
2023-02-19T19:29:47.441Z,4.02
2023-02-19T19:32:19.946Z,4.29
2023-02-19T19:34:49.922Z,4.78
2023-02-19T19:37:19.852Z,4.28
2023-02-19T19:39:49.708Z,4.59
2023-02-19T19:42:19.565Z,4.53
2023-02-19T19:44:49.447Z,4.16
2023-02-19T19:47:22.376Z,4.47
2023-02-19T19:49:52.460Z,4.83
2023-02-19T19:52:22.467Z,4.53
2023-02-19T19:54:54.263Z,4.84
2023-02-19T19:57:24.350Z,4.57
2023-02-19T19:59:54.240Z,4.70
2023-02-19T20:02:26.847Z,4.86
2023-02-19T20:04:56.842Z,5.13
2023-02-19T20:07:28.466Z,5.02
2023-02-19T20:09:58.384Z,5.18
2023-02-19T20:12:28.256Z,5.34
2023-02-19T20:14:58.224Z,4.89
2023-02-19T20:17:30.774Z,4.67
2023-02-19T20:20:00.798Z,4.53
2023-02-19T20:22:30.693Z,4.69
2023-02-19T20:25:00.593Z,4.82
2023-02-19T20:27:30.554Z,5.19
2023-02-19T20:30:00.455Z,5.50
2023-02-19T20:32:32.897Z,5.08
2023-02-19T20:35:02.845Z,4.85
2023-02-19T20:37:32.810Z,4.67
2023-02-19T20:40:02.804Z,4.83
2023-02-19T20:42:32.776Z,5.27
2023-02-19T20:45:02.622Z,5.14
2023-02-19T20:47:35.114Z,4.84
2023-02-19T20:50:05.020Z,4.96
2023-02-19T20:52:34.885Z,7.42
2023-02-19T20:55:04.765Z,9.46
2023-02-19T20:57:34.759Z,5.85
2023-02-19T21:00:04.658Z,5.11
2023-02-19T21:02:37.378Z,5.44
2023-02-19T21:05:07.740Z,5.69
2023-02-19T21:07:37.611Z,5.77
2023-02-19T21:10:08.032Z,5.63
2023-02-19T21:12:38.053Z,5.49
2023-02-19T21:15:08.872Z,6.65
2023-02-19T21:17:41.301Z,8.40
2023-02-19T21:20:12.098Z,5.75
2023-02-19T21:22:41.971Z,6.23
2023-02-19T21:25:12.056Z,6.98
2023-02-19T21:27:42.050Z,6.42
2023-02-19T21:30:12.436Z,6.08
2023-02-19T21:32:45.018Z,6.16
2023-02-19T21:35:14.823Z,8.01
2023-02-19T21:37:45.994Z,6.78
2023-02-19T21:40:16.628Z,6.76
2023-02-19T21:42:46.528Z,6.18
2023-02-19T21:45:16.451Z,5.92
2023-02-19T21:47:52.116Z,5.67
2023-02-19T21:50:22.562Z,5.59
2023-02-19T21:52:52.722Z,5.71
2023-02-19T21:55:22.608Z,6.12
2023-02-19T21:57:52.538Z,5.91
2023-02-19T22:00:23.005Z,6.12
2023-02-19T22:02:55.455Z,6.25
2023-02-19T22:05:26.650Z,6.27
2023-02-19T22:07:58.299Z,6.04
2023-02-19T22:10:28.383Z,6.35
2023-02-19T22:12:58.207Z,6.82
2023-02-19T22:15:28.036Z,6.50
2023-02-19T22:18:00.518Z,8.82
2023-02-19T22:20:30.472Z,6.96
2023-02-19T22:23:00.339Z,6.98
2023-02-19T22:25:30.281Z,7.63
2023-02-19T22:28:00.331Z,7.51
2023-02-19T22:30:33.196Z,6.68
2023-02-19T22:33:06.544Z,6.78
2023-02-19T22:35:36.497Z,6.60
2023-02-19T22:38:06.466Z,7.38
2023-02-19T22:40:36.416Z,6.22
2023-02-19T22:43:06.415Z,6.28
2023-02-19T22:45:36.464Z,6.45
2023-02-19T22:48:09.733Z,6.43
2023-02-19T22:50:40.405Z,6.46
2023-02-19T22:53:10.206Z,6.68
2023-02-19T22:55:40.071Z,6.39
2023-02-19T22:58:09.939Z,7.64
2023-02-19T23:00:39.846Z,6.69
2023-02-19T23:03:12.261Z,6.53
2023-02-19T23:05:42.093Z,6.14
2023-02-19T23:08:14.340Z,6.02
2023-02-19T23:10:44.234Z,6.48
2023-02-19T23:13:14.153Z,6.49
2023-02-19T23:15:44.020Z,6.43
2023-02-19T23:18:16.470Z,6.10
2023-02-19T23:20:46.363Z,6.51
2023-02-19T23:23:16.259Z,7.58
2023-02-19T23:25:46.185Z,7.52
2023-02-19T23:28:16.134Z,6.74
2023-02-19T23:30:46.046Z,6.18
2023-02-19T23:33:18.632Z,6.65
2023-02-19T23:35:48.514Z,6.50
2023-02-19T23:38:18.452Z,6.75
2023-02-19T23:40:48.345Z,7.25
2023-02-19T23:43:18.265Z,6.38
2023-02-19T23:45:48.256Z,6.15
2023-02-19T23:48:20.791Z,6.14
2023-02-19T23:50:50.711Z,6.07
2023-02-19T23:53:20.691Z,6.29
2023-02-19T23:55:51.676Z,6.01
2023-02-19T23:58:21.854Z,6.18
